sensor_id;sensor_type;location;lat;lon;timestamp;pressure;altitude;pressure_sealevel;temperature;humidity
18201;BME280;9226;47.858;9.594;2023-02-12T00:02:04;96990.41;;;1.76;66.55
18201;BME280;9226;47.858;9.594;2023-02-12T00:04:29;96999.09;;;1.76;66.48
18201;BME280;9226;47.858;9.594;2023-02-12T00:06:55;96998.25;;;1.76;66.79
18201;BME280;9226;47.858;9.594;2023-02-12T00:09:20;96999.94;;;1.77;66.68
18201;BME280;9226;47.858;9.594;2023-02-12T00:11:45;96999.91;;;1.80;66.62
18201;BME280;9226;47.858;9.594;2023-02-12T00:14:11;96996.31;;;1.84;66.37
18201;BME280;9226;47.858;9.594;2023-02-12T00:16:36;96998.06;;;1.85;66.99
18201;BME280;9226;47.858;9.594;2023-02-12T00:19:02;96995.44;;;1.85;67.00
18201;BME280;9226;47.858;9.594;2023-02-12T00:21:27;96991.88;;;1.88;66.31
18201;BME280;9226;47.858;9.594;2023-02-12T00:23:54;96992.75;;;1.88;66.32
18201;BME280;9226;47.858;9.594;2023-02-12T00:26:20;96993.66;;;1.87;66.70
18201;BME280;9226;47.858;9.594;2023-02-12T00:28:45;96989.31;;;1.85;66.90
18201;BME280;9226;47.858;9.594;2023-02-12T00:31:13;96991.94;;;1.85;66.45
18201;BME280;9226;47.858;9.594;2023-02-12T00:33:39;97005.03;;;1.85;66.43
18201;BME280;9226;47.858;9.594;2023-02-12T00:36:06;96998.13;;;1.82;66.89
18201;BME280;9226;47.858;9.594;2023-02-12T00:38:31;96996.34;;;1.83;66.70
18201;BME280;9226;47.858;9.594;2023-02-12T00:40:57;97002.47;;;1.81;66.38
18201;BME280;9226;47.858;9.594;2023-02-12T00:43:22;97010.34;;;1.80;66.73
18201;BME280;9226;47.858;9.594;2023-02-12T00:45:48;97002.56;;;1.77;66.81
18201;BME280;9226;47.858;9.594;2023-02-12T00:48:14;97001.72;;;1.76;67.04
18201;BME280;9226;47.858;9.594;2023-02-12T00:50:39;96998.25;;;1.76;66.55
18201;BME280;9226;47.858;9.594;2023-02-12T00:53:06;96998.25;;;1.76;66.90
18201;BME280;9226;47.858;9.594;2023-02-12T00:55:32;96997.41;;;1.74;67.26
18201;BME280;9226;47.858;9.594;2023-02-12T00:57:57;97001.00;;;1.70;67.90
18201;BME280;9226;47.858;9.594;2023-02-12T01:00:23;97007.19;;;1.66;68.16
18201;BME280;9226;47.858;9.594;2023-02-12T01:02:48;97014.16;;;1.67;67.13
18201;BME280;9226;47.858;9.594;2023-02-12T01:05:13;97015.94;;;1.65;67.60
18201;BME280;9226;47.858;9.594;2023-02-12T01:07:39;97014.22;;;1.63;67.61
18201;BME280;9226;47.858;9.594;2023-02-12T01:10:06;97019.50;;;1.60;67.97
18201;BME280;9226;47.858;9.594;2023-02-12T01:12:32;97016.91;;;1.59;67.52
18201;BME280;9226;47.858;9.594;2023-02-12T01:14:57;97012.53;;;1.59;67.80
18201;BME280;9226;47.858;9.594;2023-02-12T01:17:22;97016.09;;;1.57;68.33
18201;BME280;9226;47.858;9.594;2023-02-12T01:19:48;97010.91;;;1.55;68.66
18201;BME280;9226;47.858;9.594;2023-02-12T01:22:13;97012.53;;;1.59;68.26
18201;BME280;9226;47.858;9.594;2023-02-12T01:24:38;97023.84;;;1.61;67.97
18201;BME280;9226;47.858;9.594;2023-02-12T01:27:04;97022.91;;;1.64;67.75
18201;BME280;9226;47.858;9.594;2023-02-12T01:29:29;97015.94;;;1.65;68.05
18201;BME280;9226;47.858;9.594;2023-02-12T01:31:55;97013.31;;;1.65;68.07
18201;BME280;9226;47.858;9.594;2023-02-12T01:34:20;97018.53;;;1.66;68.18
18201;BME280;9226;47.858;9.594;2023-02-12T01:36:45;97007.19;;;1.66;68.01
18201;BME280;9226;47.858;9.594;2023-02-12T01:39:11;97000.25;;;1.65;68.32
18201;BME280;9226;47.858;9.594;2023-02-12T01:41:40;97000.25;;;1.65;68.05
18201;BME280;9226;47.858;9.594;2023-02-12T01:44:16;96998.50;;;1.63;67.77
18201;BME280;9226;47.858;9.594;2023-02-12T01:46:44;97008.94;;;1.65;67.61
18201;BME280;9226;47.858;9.594;2023-02-12T01:49:18;97005.47;;;1.65;67.93
18201;BME280;9226;47.858;9.594;2023-02-12T01:51:46;97000.25;;;1.65;68.06
18201;BME280;9226;47.858;9.594;2023-02-12T01:54:14;97002.84;;;1.65;68.49
18201;BME280;9226;47.858;9.594;2023-02-12T01:56:41;97005.59;;;1.58;69.65
18201;BME280;9226;47.858;9.594;2023-02-12T01:59:07;97002.03;;;1.61;69.15
18201;BME280;9226;47.858;9.594;2023-02-12T02:01:34;97003.84;;;1.59;70.02
18201;BME280;9226;47.858;9.594;2023-02-12T02:04:03;97005.53;;;1.61;69.56
18201;BME280;9226;47.858;9.594;2023-02-12T02:06:37;97002.91;;;1.61;70.55
18201;BME280;9226;47.858;9.594;2023-02-12T02:09:04;97000.22;;;1.66;69.70
18201;BME280;9226;47.858;9.594;2023-02-12T02:11:30;97001.06;;;1.67;70.28
18201;BME280;9226;47.858;9.594;2023-02-12T02:14:14;97000.13;;;1.69;70.11
18201;BME280;9226;47.858;9.594;2023-02-12T02:25:43;96994.78;;;1.74;70.39
18201;BME280;9226;47.858;9.594;2023-02-12T02:28:52;97005.25;;;1.74;70.28
18201;BME280;9226;47.858;9.594;2023-02-12T02:31:43;96997.50;;;1.69;71.03
18201;BME280;9226;47.858;9.594;2023-02-12T02:34:22;97003.66;;;1.68;71.55
18201;BME280;9226;47.858;9.594;2023-02-12T02:37:07;96990.63;;;1.65;71.57
18201;BME280;9226;47.858;9.594;2023-02-12T02:39:43;96984.53;;;1.65;71.31
18201;BME280;9226;47.858;9.594;2023-02-12T02:42:19;96987.16;;;1.65;71.58
18201;BME280;9226;47.858;9.594;2023-02-12T02:44:52;96996.78;;;1.62;71.53
18201;BME280;9226;47.858;9.594;2023-02-12T02:47:20;96987.22;;;1.61;71.81
18201;BME280;9226;47.858;9.594;2023-02-12T02:49:55;96982.88;;;1.60;72.13
18201;BME280;9226;47.858;9.594;2023-02-12T02:52:27;96988.09;;;1.60;72.04
18201;BME280;9226;47.858;9.594;2023-02-12T02:55:02;96982.81;;;1.63;72.64
18201;BME280;9226;47.858;9.594;2023-02-12T02:57:44;96983.66;;;1.64;72.58
18201;BME280;9226;47.858;9.594;2023-02-12T03:00:20;96985.34;;;1.67;71.61
18201;BME280;9226;47.858;9.594;2023-02-12T03:02:50;96975.75;;;1.67;71.73
18201;BME280;9226;47.858;9.594;2023-02-12T03:05:28;96970.47;;;1.69;71.29
18201;BME280;9226;47.858;9.594;2023-02-12T03:07:59;96975.66;;;1.72;70.72
18201;BME280;9226;47.858;9.594;2023-02-12T03:10:41;96974.81;;;1.71;71.01
18201;BME280;9226;47.858;9.594;2023-02-12T03:13:17;96966.03;;;1.72;70.84
18201;BME280;9226;47.858;9.594;2023-02-12T03:16:06;96967.84;;;1.70;71.58
18201;BME280;9226;47.858;9.594;2023-02-12T03:18:43;96966.91;;;1.73;70.53
18201;BME280;9226;47.858;9.594;2023-02-12T03:21:14;96968.69;;;1.71;70.64
18201;BME280;9226;47.858;9.594;2023-02-12T03:24:00;96969.59;;;1.70;70.34
18201;BME280;9226;47.858;9.594;2023-02-12T03:26:46;96971.34;;;1.69;70.59
18201;BME280;9226;47.858;9.594;2023-02-12T03:29:12;96977.47;;;1.68;70.42
18201;BME280;9226;47.858;9.594;2023-02-12T03:34:27;96979.38;;;1.61;71.38
18201;BME280;9226;47.858;9.594;2023-02-12T03:37:04;96979.38;;;1.61;71.15
18201;BME280;9226;47.858;9.594;2023-02-12T03:44:58;96989.19;;;1.49;74.62
18201;BME280;9226;47.858;9.594;2023-02-12T03:47:40;96987.53;;;1.46;74.48
18201;BME280;9226;47.858;9.594;2023-02-12T03:52:39;97003.31;;;1.41;75.43
18201;BME280;9226;47.858;9.594;2023-02-12T03:55:05;96999.88;;;1.39;76.07
18201;BME280;9226;47.858;9.594;2023-02-12T03:57:35;96997.16;;;1.44;75.56
18201;BME280;9226;47.858;9.594;2023-02-12T04:00:06;96996.16;;;1.50;74.76
18201;BME280;9226;47.858;9.594;2023-02-12T04:02:32;96995.28;;;1.51;75.06
18201;BME280;9226;47.858;9.594;2023-02-12T04:05:04;97004.09;;;1.45;76.18
18201;BME280;9226;47.858;9.594;2023-02-12T04:07:29;96998.00;;;1.46;76.03
18201;BME280;9226;47.858;9.594;2023-02-12T04:09:55;97000.53;;;1.49;76.22
18201;BME280;9226;47.858;9.594;2023-02-12T04:18:17;97008.97;;;1.63;76.14
18201;BME280;9226;47.858;9.594;2023-02-12T04:23:41;97006.25;;;1.68;77.58
18201;BME280;9226;47.858;9.594;2023-02-12T04:31:51;97005.75;;;1.91;76.35
18201;BME280;9226;47.858;9.594;2023-02-12T04:37:16;97013.28;;;2.07;75.62
18201;BME280;9226;47.858;9.594;2023-02-12T04:39:43;97024.41;;;2.16;74.64
18201;BME280;9226;47.858;9.594;2023-02-12T04:42:09;97024.28;;;2.21;73.99
18201;BME280;9226;47.858;9.594;2023-02-12T04:44:38;97026.97;;;2.18;74.72
18201;BME280;9226;47.858;9.594;2023-02-12T04:47:04;97026.06;;;2.21;74.70
18201;BME280;9226;47.858;9.594;2023-02-12T04:49:29;97026.97;;;2.18;75.31
18201;BME280;9226;47.858;9.594;2023-02-12T04:51:55;97019.97;;;2.20;74.63
18201;BME280;9226;47.858;9.594;2023-02-12T04:54:22;97014.69;;;2.22;74.34
18201;BME280;9226;47.858;9.594;2023-02-12T04:56:48;97014.69;;;2.22;74.21
18201;BME280;9226;47.858;9.594;2023-02-12T04:59:13;97025.28;;;2.17;74.87
18201;BME280;9226;47.858;9.594;2023-02-12T05:01:40;97016.56;;;2.15;74.93
18201;BME280;9226;47.858;9.594;2023-02-12T05:04:07;97020.06;;;2.15;74.46
18201;BME280;9226;47.858;9.594;2023-02-12T05:06:35;97015.78;;;2.11;75.15
18201;BME280;9226;47.858;9.594;2023-02-12T05:09:00;97021.88;;;2.12;75.42
18201;BME280;9226;47.858;9.594;2023-02-12T05:11:26;97015.75;;;2.13;74.77
18201;BME280;9226;47.858;9.594;2023-02-12T05:13:52;97019.22;;;2.13;74.78
18201;BME280;9226;47.858;9.594;2023-02-12T05:16:19;97014.19;;;2.06;76.42
18201;BME280;9226;47.858;9.594;2023-02-12T05:18:45;97012.31;;;2.11;75.24
18201;BME280;9226;47.858;9.594;2023-02-12T05:21:11;97009.84;;;2.05;76.44
18201;BME280;9226;47.858;9.594;2023-02-12T05:23:37;97011.56;;;2.06;75.94
18201;BME280;9226;47.858;9.594;2023-02-12T05:26:06;97010.69;;;2.05;76.20
18201;BME280;9226;47.858;9.594;2023-02-12T05:28:32;97009.91;;;2.02;76.80
18201;BME280;9226;47.858;9.594;2023-02-12T05:31:02;97004.66;;;2.02;76.41
18201;BME280;9226;47.858;9.594;2023-02-12T05:33:27;97002.94;;;2.01;76.41
18201;BME280;9226;47.858;9.594;2023-02-12T05:35:53;96999.38;;;2.05;75.76
18201;BME280;9226;47.858;9.594;2023-02-12T05:38:19;97000.22;;;2.05;75.58
18201;BME280;9226;47.858;9.594;2023-02-12T05:40:45;96998.53;;;2.03;75.77
18201;BME280;9226;47.858;9.594;2023-02-12T05:43:10;97002.81;;;2.07;75.32
18201;BME280;9226;47.858;9.594;2023-02-12T05:45:35;97004.59;;;2.05;75.71
18201;BME280;9226;47.858;9.594;2023-02-12T05:48:02;97005.53;;;2.02;76.40
18201;BME280;9226;47.858;9.594;2023-02-12T05:50:28;97006.50;;;1.98;76.89
18201;BME280;9226;47.858;9.594;2023-02-12T05:52:54;97003.13;;;1.91;77.94
18201;BME280;9226;47.858;9.594;2023-02-12T05:55:19;96996.00;;;1.99;76.48
18201;BME280;9226;47.858;9.594;2023-02-12T05:57:44;96995.94;;;2.03;76.29
18201;BME280;9226;47.858;9.594;2023-02-12T06:00:11;97003.06;;;1.94;77.72
18201;BME280;9226;47.858;9.594;2023-02-12T06:02:37;96990.88;;;1.95;77.87
18201;BME280;9226;47.858;9.594;2023-02-12T06:05:03;96992.53;;;1.97;77.30
18201;BME280;9226;47.858;9.594;2023-02-12T06:07:28;96993.34;;;2.01;77.24
18201;BME280;9226;47.858;9.594;2023-02-12T06:09:54;96991.50;;;2.05;76.55
18201;BME280;9226;47.858;9.594;2023-02-12T06:12:20;96990.56;;;2.09;75.99
18201;BME280;9226;47.858;9.594;2023-02-12T06:14:46;96990.56;;;2.09;76.13
18201;BME280;9226;47.858;9.594;2023-02-12T06:17:12;97005.31;;;2.11;76.06
18201;BME280;9226;47.858;9.594;2023-02-12T06:19:37;97004.44;;;2.12;76.00
18201;BME280;9226;47.858;9.594;2023-02-12T06:22:03;97001.84;;;2.11;76.42
18201;BME280;9226;47.858;9.594;2023-02-12T06:24:28;97011.34;;;2.15;76.00
18201;BME280;9226;47.858;9.594;2023-02-12T06:26:53;97006.97;;;2.15;75.90
18201;BME280;9226;47.858;9.594;2023-02-12T06:29:20;97010.41;;;2.17;75.56
18201;BME280;9226;47.858;9.594;2023-02-12T06:31:46;97007.78;;;2.19;75.17
18201;BME280;9226;47.858;9.594;2023-02-12T06:34:13;97019.06;;;2.21;75.53
18201;BME280;9226;47.858;9.594;2023-02-12T06:36:42;97018.16;;;2.22;75.26
18201;BME280;9226;47.858;9.594;2023-02-12T06:39:12;97014.75;;;2.20;76.23
18201;BME280;9226;47.858;9.594;2023-02-12T06:41:38;97024.19;;;2.26;75.55
18201;BME280;9226;47.858;9.594;2023-02-12T06:44:05;97031.09;;;2.30;75.25
18201;BME280;9226;47.858;9.594;2023-02-12T06:46:31;97030.38;;;2.23;78.26
18201;BME280;9226;47.858;9.594;2023-02-12T06:48:58;97028.44;;;2.31;77.43
18201;BME280;9226;47.858;9.594;2023-02-12T06:51:24;97035.09;;;2.45;76.95
18201;BME280;9226;47.858;9.594;2023-02-12T06:53:51;97034.25;;;2.44;80.71
18201;BME280;9226;47.858;9.594;2023-02-12T06:56:17;97040.94;;;2.56;80.96
18201;BME280;9226;47.858;9.594;2023-02-12T06:58:45;97034.34;;;2.77;80.08
18201;BME280;9226;47.858;9.594;2023-02-12T07:01:16;97037.38;;;2.96;80.08
18201;BME280;9226;47.858;9.594;2023-02-12T07:03:48;97036.91;;;3.15;81.09
18201;BME280;9226;47.858;9.594;2023-02-12T07:06:13;97033.34;;;3.49;80.67
18201;BME280;9226;47.858;9.594;2023-02-12T07:08:39;97033.81;;;3.94;79.90
18201;BME280;9226;47.858;9.594;2023-02-12T07:11:04;97040.16;;;4.45;78.96
18201;BME280;9226;47.858;9.594;2023-02-12T07:13:30;97035.81;;;4.71;77.96
18201;BME280;9226;47.858;9.594;2023-02-12T07:16:02;97045.06;;;5.11;76.19
18201;BME280;9226;47.858;9.594;2023-02-12T07:18:28;97051.44;;;5.54;75.08
18201;BME280;9226;47.858;9.594;2023-02-12T07:20:55;97034.81;;;6.03;73.37
18201;BME280;9226;47.858;9.594;2023-02-12T07:23:20;97051.53;;;6.25;71.36
18201;BME280;9226;47.858;9.594;2023-02-12T07:26:04;97048.50;;;6.58;69.70
18201;BME280;9226;47.858;9.594;2023-02-12T07:28:30;97040.59;;;7.23;67.70
18201;BME280;9226;47.858;9.594;2023-02-12T07:31:02;97033.66;;;7.41;66.37
18201;BME280;9226;47.858;9.594;2023-02-12T07:33:29;97038.59;;;8.28;65.32
18201;BME280;9226;47.858;9.594;2023-02-12T07:35:59;97033.22;;;8.10;64.34
18201;BME280;9226;47.858;9.594;2023-02-12T07:38:24;97040.00;;;8.56;63.37
18201;BME280;9226;47.858;9.594;2023-02-12T07:40:50;97031.66;;;8.82;62.75
18201;BME280;9226;47.858;9.594;2023-02-12T07:43:15;97041.41;;;9.34;61.45
18201;BME280;9226;47.858;9.594;2023-02-12T07:45:40;97031.19;;;9.79;59.62
18201;BME280;9226;47.858;9.594;2023-02-12T07:48:06;97028.88;;;10.22;59.27
18201;BME280;9226;47.858;9.594;2023-02-12T07:50:31;97025.94;;;10.60;57.27
18201;BME280;9226;47.858;9.594;2023-02-12T07:52:56;97028.56;;;10.92;56.51
18201;BME280;9226;47.858;9.594;2023-02-12T07:55:22;97022.31;;;11.54;54.49
18201;BME280;9226;47.858;9.594;2023-02-12T07:57:47;97022.84;;;11.89;52.67
18201;BME280;9226;47.858;9.594;2023-02-12T08:00:13;97022.59;;;12.08;51.28
18201;BME280;9226;47.858;9.594;2023-02-12T08:02:39;97011.53;;;12.85;50.53
18201;BME280;9226;47.858;9.594;2023-02-12T08:05:05;97016.38;;;12.51;50.18
18201;BME280;9226;47.858;9.594;2023-02-12T08:07:30;97011.91;;;12.79;48.46
18201;BME280;9226;47.858;9.594;2023-02-12T08:09:56;97020.63;;;13.23;48.76
18201;BME280;9226;47.858;9.594;2023-02-12T08:12:21;97015.00;;;14.06;47.10
18201;BME280;9226;47.858;9.594;2023-02-12T08:14:48;97014.94;;;14.94;44.74
18201;BME280;9226;47.858;9.594;2023-02-12T08:17:13;97011.53;;;15.63;45.17
18201;BME280;9226;47.858;9.594;2023-02-12T08:19:38;97013.78;;;15.81;44.71
18201;BME280;9226;47.858;9.594;2023-02-12T08:22:04;97013.09;;;16.24;43.51
18201;BME280;9226;47.858;9.594;2023-02-12T08:24:31;97010.22;;;17.16;42.76
18201;BME280;9226;47.858;9.594;2023-02-12T08:26:56;97010.09;;;16.40;40.71
18201;BME280;9226;47.858;9.594;2023-02-12T08:29:25;97004.94;;;17.26;40.43
18201;BME280;9226;47.858;9.594;2023-02-12T08:31:58;96999.63;;;17.35;39.44
18201;BME280;9226;47.858;9.594;2023-02-12T08:34:26;97002.78;;;17.41;39.10
18201;BME280;9226;47.858;9.594;2023-02-12T08:36:53;96993.25;;;17.69;39.05
18201;BME280;9226;47.858;9.594;2023-02-12T08:39:19;96992.16;;;17.93;37.77
18201;BME280;9226;47.858;9.594;2023-02-12T08:41:45;96994.13;;;17.90;38.25
18201;BME280;9226;47.858;9.594;2023-02-12T08:44:12;96984.84;;;18.66;38.90
18201;BME280;9226;47.858;9.594;2023-02-12T08:46:40;96987.81;;;17.80;38.41
18201;BME280;9226;47.858;9.594;2023-02-12T08:49:11;96985.78;;;17.72;37.84
18201;BME280;9226;47.858;9.594;2023-02-12T08:51:40;96990.69;;;18.10;38.08
18201;BME280;9226;47.858;9.594;2023-02-12T08:54:10;96987.53;;;17.83;37.27
18201;BME280;9226;47.858;9.594;2023-02-12T08:56:35;96989.88;;;18.59;37.99
18201;BME280;9226;47.858;9.594;2023-02-12T08:59:03;96986.13;;;18.31;36.63
18201;BME280;9226;47.858;9.594;2023-02-12T09:01:30;96992.34;;;18.32;37.25
18201;BME280;9226;47.858;9.594;2023-02-12T09:03:57;96985.84;;;17.08;37.76
18201;BME280;9226;47.858;9.594;2023-02-12T09:06:24;96983.66;;;18.18;37.59
18201;BME280;9226;47.858;9.594;2023-02-12T09:08:50;96989.03;;;18.49;35.73
18201;BME280;9226;47.858;9.594;2023-02-12T09:11:17;96991.56;;;18.41;36.28
18201;BME280;9226;47.858;9.594;2023-02-12T09:13:44;96984.84;;;18.76;36.02
18201;BME280;9226;47.858;9.594;2023-02-12T09:16:10;96994.59;;;19.47;36.12
18201;BME280;9226;47.858;9.594;2023-02-12T09:18:36;96983.94;;;19.84;34.07
18201;BME280;9226;47.858;9.594;2023-02-12T09:21:04;96975.72;;;20.89;34.49
18201;BME280;9226;47.858;9.594;2023-02-12T09:23:30;96973.94;;;21.25;33.91
18201;BME280;9226;47.858;9.594;2023-02-12T09:25:55;96973.94;;;20.52;33.22
18201;BME280;9226;47.858;9.594;2023-02-12T09:28:21;96970.78;;;20.56;33.28
18201;BME280;9226;47.858;9.594;2023-02-12T09:30:47;96966.50;;;21.09;32.86
18201;BME280;9226;47.858;9.594;2023-02-12T09:33:13;96966.22;;;20.57;32.47
18201;BME280;9226;47.858;9.594;2023-02-12T09:35:39;96959.34;;;21.00;32.71
18201;BME280;9226;47.858;9.594;2023-02-12T09:38:05;96964.31;;;20.95;32.73
18201;BME280;9226;47.858;9.594;2023-02-12T09:45:48;96957.09;;;21.13;32.43
18201;BME280;9226;47.858;9.594;2023-02-12T09:48:34;96966.13;;;21.04;32.56
18201;BME280;9226;47.858;9.594;2023-02-12T09:51:04;96959.94;;;21.84;31.76
18201;BME280;9226;47.858;9.594;2023-02-12T09:53:35;96966.13;;;21.58;31.64
18201;BME280;9226;47.858;9.594;2023-02-12T09:56:10;96961.31;;;22.14;31.38
18201;BME280;9226;47.858;9.594;2023-02-12T09:58:41;96957.06;;;22.12;30.78
18201;BME280;9226;47.858;9.594;2023-02-12T10:01:13;96950.16;;;22.17;31.18
18201;BME280;9226;47.858;9.594;2023-02-12T10:03:40;96947.44;;;22.09;30.99
18201;BME280;9226;47.858;9.594;2023-02-12T10:06:14;96946.75;;;22.42;30.37
18201;BME280;9226;47.858;9.594;2023-02-12T10:11:39;96954.84;;;21.81;30.97
18201;BME280;9226;47.858;9.594;2023-02-12T10:15:00;96956.69;;;22.33;30.35
18201;BME280;9226;47.858;9.594;2023-02-12T10:23:24;96948.38;;;21.74;31.09
18201;BME280;9226;47.858;9.594;2023-02-12T10:25:54;96951.00;;;21.92;31.80
18201;BME280;9226;47.858;9.594;2023-02-12T10:31:01;96935.94;;;21.63;31.53
18201;BME280;9226;47.858;9.594;2023-02-12T10:33:34;96950.75;;;20.87;32.32
18201;BME280;9226;47.858;9.594;2023-02-12T10:36:15;96949.31;;;21.28;31.42
18201;BME280;9226;47.858;9.594;2023-02-12T10:38:48;96951.19;;;20.64;31.55
18201;BME280;9226;47.858;9.594;2023-02-12T10:41:15;96950.66;;;20.51;32.47
18201;BME280;9226;47.858;9.594;2023-02-12T10:43:41;96952.63;;;19.54;33.20
18201;BME280;9226;47.858;9.594;2023-02-12T10:46:13;96948.09;;;18.86;34.24
18201;BME280;9226;47.858;9.594;2023-02-12T10:48:41;96944.47;;;19.26;34.46
18201;BME280;9226;47.858;9.594;2023-02-12T10:53:42;96937.94;;;19.19;34.04
18201;BME280;9226;47.858;9.594;2023-02-12T10:58:59;96924.78;;;20.02;33.76
18201;BME280;9226;47.858;9.594;2023-02-12T11:01:27;96922.66;;;19.96;33.83
18201;BME280;9226;47.858;9.594;2023-02-12T11:03:55;96927.53;;;18.75;34.89
18201;BME280;9226;47.858;9.594;2023-02-12T11:06:26;96921.72;;;19.68;34.16
18201;BME280;9226;47.858;9.594;2023-02-12T11:08:52;96919.22;;;19.27;34.59
18201;BME280;9226;47.858;9.594;2023-02-12T11:11:21;96922.94;;;19.26;34.63
18201;BME280;9226;47.858;9.594;2023-02-12T11:14:05;96916.28;;;18.91;34.73
18201;BME280;9226;47.858;9.594;2023-02-12T11:16:36;96908.56;;;18.77;35.26
18201;BME280;9226;47.858;9.594;2023-02-12T11:19:04;96902.25;;;19.17;35.21
18201;BME280;9226;47.858;9.594;2023-02-12T11:21:31;96904.22;;;19.25;35.08
18201;BME280;9226;47.858;9.594;2023-02-12T11:23:56;96907.44;;;18.70;35.12
18201;BME280;9226;47.858;9.594;2023-02-12T11:26:28;96894.56;;;18.73;35.78
18201;BME280;9226;47.858;9.594;2023-02-12T11:34:16;96881.97;;;17.52;37.00
18201;BME280;9226;47.858;9.594;2023-02-12T11:36:48;96887.16;;;17.23;37.80
18201;BME280;9226;47.858;9.594;2023-02-12T11:39:29;96900.59;;;16.79;39.00
18201;BME280;9226;47.858;9.594;2023-02-12T11:42:03;96888.88;;;16.48;39.26
18201;BME280;9226;47.858;9.594;2023-02-12T11:44:36;96887.63;;;15.74;40.80
18201;BME280;9226;47.858;9.594;2023-02-12T11:47:16;96883.09;;;15.41;40.99
18201;BME280;9226;47.858;9.594;2023-02-12T11:49:55;96881.59;;;15.14;42.24
18201;BME280;9226;47.858;9.594;2023-02-12T11:52:28;96883.78;;;15.20;42.03
18201;BME280;9226;47.858;9.594;2023-02-12T11:54:57;96873.13;;;15.43;42.38
18201;BME280;9226;47.858;9.594;2023-02-12T12:02:57;96872.06;;;14.98;43.48
18201;BME280;9226;47.858;9.594;2023-02-12T12:05:29;96869.13;;;15.71;42.14
18201;BME280;9226;47.858;9.594;2023-02-12T12:07:58;96866.03;;;15.19;42.72
18201;BME280;9226;47.858;9.594;2023-02-12T12:13:14;96860.19;;;15.14;43.51
18201;BME280;9226;47.858;9.594;2023-02-12T12:15:46;96847.66;;;15.03;43.51
18201;BME280;9226;47.858;9.594;2023-02-12T12:19:00;96853.16;;;15.24;43.29
18201;BME280;9226;47.858;9.594;2023-02-12T12:22:04;96848.22;;;14.95;43.42
18201;BME280;9226;47.858;9.594;2023-02-12T12:24:48;96854.09;;;14.41;44.29
18201;BME280;9226;47.858;9.594;2023-02-12T12:47:19;96841.88;;;13.75;46.71
18201;BME280;9226;47.858;9.594;2023-02-12T12:50:15;96843.00;;;13.34;47.53
18201;BME280;9226;47.858;9.594;2023-02-12T12:55:26;96828.06;;;13.94;47.25
18201;BME280;9226;47.858;9.594;2023-02-12T12:58:17;96828.81;;;13.60;47.62
18201;BME280;9226;47.858;9.594;2023-02-12T13:07:12;96823.28;;;13.37;48.60
18201;BME280;9226;47.858;9.594;2023-02-12T13:09:50;96824.88;;;13.27;49.14
18201;BME280;9226;47.858;9.594;2023-02-12T13:12:55;96820.50;;;13.00;50.00
18201;BME280;9226;47.858;9.594;2023-02-12T13:18:45;96831.88;;;12.36;51.28
18201;BME280;9226;47.858;9.594;2023-02-12T13:24:24;96816.22;;;12.72;50.57
18201;BME280;9226;47.858;9.594;2023-02-12T13:26:56;96825.69;;;11.96;52.63
18201;BME280;9226;47.858;9.594;2023-02-12T13:29:30;96816.72;;;11.97;52.78
18201;BME280;9226;47.858;9.594;2023-02-12T13:32:12;96826.78;;;11.35;54.88
18201;BME280;9226;47.858;9.594;2023-02-12T13:34:42;96826.28;;;11.29;55.29
18201;BME280;9226;47.858;9.594;2023-02-12T13:37:15;96818.22;;;11.01;56.44
18201;BME280;9226;47.858;9.594;2023-02-12T13:39:45;96818.78;;;10.92;56.79
18201;BME280;9226;47.858;9.594;2023-02-12T13:42:15;96817.66;;;10.96;56.84
18201;BME280;9226;47.858;9.594;2023-02-12T13:44:56;96821.34;;;10.94;57.91
18201;BME280;9226;47.858;9.594;2023-02-12T13:52:48;96810.81;;;11.07;57.09
18201;BME280;9226;47.858;9.594;2023-02-12T13:55:21;96815.56;;;11.01;57.80
18201;BME280;9226;47.858;9.594;2023-02-12T14:00:57;96825.25;;;11.31;56.54
18201;BME280;9226;47.858;9.594;2023-02-12T14:03:25;96827.16;;;11.29;56.50
18201;BME280;9226;47.858;9.594;2023-02-12T14:06:23;96826.75;;;10.92;57.87
18201;BME280;9226;47.858;9.594;2023-02-12T14:08:52;96832.41;;;10.86;57.70
18201;BME280;9226;47.858;9.594;2023-02-12T14:11:25;96839.13;;;10.63;58.97
18201;BME280;9226;47.858;9.594;2023-02-12T14:16:35;96832.19;;;10.60;58.71
18201;BME280;9226;47.858;9.594;2023-02-12T14:24:54;96839.84;;;10.50;59.28
18201;BME280;9226;47.858;9.594;2023-02-12T14:27:31;96841.38;;;10.39;59.55
18201;BME280;9226;47.858;9.594;2023-02-12T14:32:56;96852.03;;;10.07;60.11
18201;BME280;9226;47.858;9.594;2023-02-12T14:37:51;96849.72;;;10.01;60.58
18201;BME280;9226;47.858;9.594;2023-02-12T14:43:02;96844.50;;;9.83;60.98
18201;BME280;9226;47.858;9.594;2023-02-12T14:45:34;96845.88;;;9.74;61.11
18201;BME280;9226;47.858;9.594;2023-02-12T14:48:01;96842.44;;;9.72;61.55
18201;BME280;9226;47.858;9.594;2023-02-12T14:50:37;96843.50;;;9.70;61.62
18201;BME280;9226;47.858;9.594;2023-02-12T14:53:09;96840.66;;;9.73;61.56
18201;BME280;9226;47.858;9.594;2023-02-12T14:55:37;96847.56;;;9.59;61.99
18201;BME280;9226;47.858;9.594;2023-02-12T14:58:11;96839.38;;;9.64;62.34
18201;BME280;9226;47.858;9.594;2023-02-12T15:00:41;96842.19;;;9.77;62.19
18201;BME280;9226;47.858;9.594;2023-02-12T15:05:58;96843.81;;;9.64;63.25
18201;BME280;9226;47.858;9.594;2023-02-12T15:14:15;96836.72;;;9.80;63.46
18201;BME280;9226;47.858;9.594;2023-02-12T15:16:48;96833.91;;;9.83;62.66
18201;BME280;9226;47.858;9.594;2023-02-12T15:19:19;96831.16;;;9.69;63.69
18201;BME280;9226;47.858;9.594;2023-02-12T15:21:45;96832.88;;;9.86;62.36
18201;BME280;9226;47.858;9.594;2023-02-12T15:24:13;96826.19;;;9.78;62.77
18201;BME280;9226;47.858;9.594;2023-02-12T15:26:50;96827.59;;;9.86;62.70
18201;BME280;9226;47.858;9.594;2023-02-12T15:29:23;96824.44;;;9.79;63.13
18201;BME280;9226;47.858;9.594;2023-02-12T15:32:01;96828.44;;;9.54;64.55
18201;BME280;9226;47.858;9.594;2023-02-12T15:34:33;96823.53;;;9.47;64.73
18201;BME280;9226;47.858;9.594;2023-02-12T15:37:02;96821.63;;;9.33;65.13
18201;BME280;9226;47.858;9.594;2023-02-12T15:39:40;96819.69;;;9.36;64.78
18201;BME280;9226;47.858;9.594;2023-02-12T15:42:33;96824.28;;;9.33;65.13
18201;BME280;9226;47.858;9.594;2023-02-12T15:45:15;96810.97;;;9.50;63.79
18201;BME280;9226;47.858;9.594;2023-02-12T15:47:43;96811.81;;;9.19;65.30
18201;BME280;9226;47.858;9.594;2023-02-12T15:50:14;96806.66;;;9.00;65.71
18201;BME280;9226;47.858;9.594;2023-02-12T15:52:42;96813.47;;;9.04;65.40
18201;BME280;9226;47.858;9.594;2023-02-12T15:55:16;96806.75;;;8.81;66.51